Time;durP1;ratioP1;P1;durP2;ratioP2;P2;SDS_P1;SDS_P2;PMS_P1;PMS_P2;Temp;Humidity;BMP_temperature;BMP_pressure;BME280_temperature;BME280_humidity;BME280_pressure;Samples;Min_cycle;Max_cycle;Signal;HPM_P1;HPM_P2
2022/10/07 00:00:48;;;;;;;27.80;22.77;;;12.80;99.90;;;;;;5022038;28;20025;-64
2022/10/07 00:03:22;;;;;;;32.75;23.42;;;12.80;99.90;;;;;;5032663;28;20047;-64
2022/10/07 00:06:05;;;;;;;28.80;23.05;;;12.80;99.90;;;;;;5033858;28;20430;-68
2022/10/07 00:08:31;;;;;;;;;;;12.80;99.90;;;;;;5033720;28;20026;-71
2022/10/07 00:11:03;;;;;;;32.25;23.00;;;12.90;99.90;;;;;;5033194;28;19912;-70
2022/10/07 00:13:29;;;;;;;30.80;22.77;;;12.90;99.90;;;;;;5033596;28;20032;-69
2022/10/07 00:16:02;;;;;;;32.40;22.13;;;12.90;99.90;;;;;;5033585;28;20411;-65
2022/10/07 00:18:28;;;;;;;30.40;22.20;;;12.80;99.90;;;;;;5033103;28;20055;-65
2022/10/07 00:20:53;;;;;;;30.27;22.42;;;12.80;99.90;;;;;;5033089;28;20116;-64
2022/10/07 00:23:20;;;;;;;32.45;20.95;;;12.80;99.90;;;;;;5033280;28;20037;-66
2022/10/07 00:25:48;;;;;;;28.35;21.70;;;12.90;99.90;;;;;;5032905;28;20108;-65
2022/10/07 00:28:14;;;;;;;26.88;20.13;;;12.90;99.90;;;;;;5029607;28;20487;-64
2022/10/07 00:30:41;;;;;;;31.15;20.15;;;12.80;99.90;;;;;;5007797;28;20109;-67
2022/10/07 00:33:09;;;;;;;27.27;20.00;;;12.80;99.90;;;;;;5030106;28;20391;-70
2022/10/07 00:35:35;;;;;;;32.28;21.42;;;12.80;99.90;;;;;;5031254;28;20025;-65
2022/10/07 00:38:01;;;;;;;30.65;22.08;;;12.70;99.90;;;;;;5021273;28;20088;-64
2022/10/07 00:40:26;;;;;;;31.75;22.63;;;12.70;99.90;;;;;;5028765;28;20034;-67
2022/10/07 00:42:52;;;;;;;30.23;22.15;;;12.70;99.90;;;;;;5028276;28;20038;-63
2022/10/07 00:45:20;;;;;;;40.33;23.23;;;12.70;99.90;;;;;;5011013;28;20029;-65
2022/10/07 00:47:48;;;;;;;29.83;21.73;;;12.80;99.90;;;;;;5014382;28;20028;-69
2022/10/07 00:50:20;;;;;;;32.72;22.17;;;12.70;99.90;;;;;;5009593;28;20064;-68
2022/10/07 00:52:59;;;;;;;35.53;21.77;;;12.70;99.90;;;;;;5013946;28;20033;-64
2022/10/07 00:55:28;;;;;;;31.20;20.88;;;12.60;99.90;;;;;;5014727;28;20022;-65
2022/10/07 00:58:00;;;;;;;28.63;21.90;;;12.60;99.90;;;;;;5032579;28;20133;-67
2022/10/07 01:00:26;;;;;;;30.85;20.73;;;12.60;99.90;;;;;;5032735;28;20022;-64
2022/10/07 01:02:52;;;;;;;29.88;21.70;;;12.60;99.90;;;;;;5026814;28;20033;-64
2022/10/07 01:05:19;;;;;;;28.17;20.60;;;12.60;99.90;;;;;;5030100;28;20036;-64
2022/10/07 01:07:46;;;;;;;28.38;21.15;;;12.50;99.90;;;;;;5029919;28;20079;-68
2022/10/07 01:10:17;;;;;;;27.20;20.08;;;12.40;99.90;;;;;;5022535;28;20025;-64
2022/10/07 01:13:21;;;;;;;29.40;20.67;;;12.40;99.90;;;;;;5022701;28;20022;-71
2022/10/07 01:16:09;;;;;;;27.60;20.15;;;12.50;99.90;;;;;;4919641;29;20147;-66
2022/10/07 01:18:51;;;;;;;28.00;19.58;;;12.50;99.90;;;;;;4930406;29;20051;-65
2022/10/07 01:21:41;;;;;;;25.00;18.85;;;12.60;99.90;;;;;;4917236;29;20035;-64
2022/10/07 01:24:28;;;;;;;27.95;20.75;;;12.60;99.90;;;;;;4932724;29;20050;-63
2022/10/07 01:27:10;;;;;;;23.90;19.08;;;12.50;99.90;;;;;;4916490;29;20046;-66
2022/10/07 01:29:42;;;;;;;27.92;21.02;;;12.50;99.90;;;;;;4927938;29;20083;-65
2022/10/07 01:32:20;;;;;;;29.40;18.97;;;12.50;99.90;;;;;;4929553;28;20363;-64
2022/10/07 01:34:50;;;;;;;29.80;19.58;;;12.50;99.90;;;;;;4927747;29;20721;-63
2022/10/07 01:37:17;;;;;;;33.28;19.95;;;12.50;99.90;;;;;;4929275;29;20094;-64
2022/10/07 01:39:50;;;;;;;26.00;18.20;;;12.50;99.90;;;;;;4932689;29;20034;-66
2022/10/07 01:42:17;;;;;;;23.23;17.10;;;12.50;99.90;;;;;;4920864;29;20036;-65
2022/10/07 01:44:46;;;;;;;24.20;17.90;;;12.50;99.90;;;;;;4932024;29;20418;-65
2022/10/07 01:47:12;;;;;;;24.08;17.83;;;12.50;99.90;;;;;;4917199;29;20040;-66
2022/10/07 01:49:39;;;;;;;24.30;17.38;;;12.60;99.90;;;;;;4925145;29;20032;-64
2022/10/07 01:52:47;;;;;;;23.92;18.23;;;12.60;99.90;;;;;;5006415;28;20438;-70
2022/10/07 01:55:32;;;;;;;25.20;17.48;;;12.60;99.90;;;;;;5003468;28;20037;-70
2022/10/07 01:58:20;;;;;;;23.83;16.00;;;12.70;99.90;;;;;;5009003;28;20073;-68
2022/10/07 02:01:00;;;;;;;25.33;16.58;;;12.70;99.90;;;;;;5015434;28;20113;-65
2022/10/07 02:03:51;;;;;;;23.95;17.13;;;12.80;99.90;;;;;;5031571;28;20059;-70
2022/10/07 02:06:45;;;;;;;26.98;16.98;;;12.70;99.90;;;;;;4917119;29;20028;-67
2022/10/07 02:09:24;;;;;;;25.48;16.38;;;12.70;99.90;;;;;;4915896;29;20138;-66
2022/10/07 02:12:11;;;;;;;22.02;14.57;;;12.70;99.90;;;;;;4921796;29;20040;-68
2022/10/07 02:14:47;;;;;;;28.60;17.55;;;12.70;99.90;;;;;;4928948;29;20068;-68
2022/10/07 02:17:18;;;;;;;25.23;16.73;;;12.70;99.90;;;;;;4912407;29;20052;-66
2022/10/07 02:19:52;;;;;;;23.70;18.33;;;12.70;99.90;;;;;;4928850;29;20429;-64
2022/10/07 02:22:21;;;;;;;24.92;17.65;;;12.80;99.90;;;;;;4935395;29;20043;-65
2022/10/07 02:24:49;;;;;;;21.75;15.65;;;12.80;99.90;;;;;;4918817;29;20047;-65
2022/10/07 02:27:23;;;;;;;23.08;16.02;;;12.80;99.90;;;;;;4931901;29;20101;-64
2022/10/07 02:29:56;;;;;;;23.70;18.55;;;12.80;99.90;;;;;;4932720;29;20050;-69
2022/10/07 02:32:25;;;;;;;22.58;16.75;;;12.80;99.90;;;;;;4932146;29;20072;-64
2022/10/07 02:34:57;;;;;;;22.95;15.82;;;12.70;99.90;;;;;;4935199;29;20478;-64
2022/10/07 02:37:29;;;;;;;22.83;16.23;;;12.70;99.90;;;;;;4924981;29;20055;-64
2022/10/07 02:39:56;;;;;;;24.80;17.08;;;12.70;99.90;;;;;;4935940;29;20429;-71
2022/10/07 02:42:38;;;;;;;24.50;17.00;;;12.80;99.90;;;;;;4928145;28;20055;-64
2022/10/07 02:45:14;;;;;;;28.30;17.80;;;12.80;99.90;;;;;;5030079;28;20025;-66
2022/10/07 02:47:48;;;;;;;24.42;15.90;;;12.80;99.90;;;;;;5033755;28;20041;-64
2022/10/07 02:50:21;;;;;;;23.80;16.17;;;12.80;99.90;;;;;;5017133;28;20026;-69
2022/10/07 02:52:50;;;;;;;23.00;16.42;;;12.70;99.90;;;;;;5039897;28;20265;-65
2022/10/07 02:55:21;;;;;;;25.65;17.67;;;12.70;99.90;;;;;;5016845;28;20108;-64
2022/10/07 02:57:51;;;;;;;24.35;16.67;;;12.70;99.90;;;;;;5034074;28;20034;-64
2022/10/07 03:00:18;;;;;;;21.02;16.00;;;12.70;99.90;;;;;;5006832;28;20030;-66
2022/10/07 03:02:52;;;;;;;23.33;16.27;;;12.70;99.90;;;;;;5006094;28;20108;-64
2022/10/07 03:05:19;;;;;;;24.40;16.00;;;12.60;99.90;;;;;;5011503;28;20029;-66
2022/10/07 03:07:55;;;;;;;25.50;18.23;;;12.60;99.90;;;;;;5014490;28;20479;-66
2022/10/07 03:10:22;;;;;;;23.92;17.40;;;12.60;99.90;;;;;;5033947;28;20167;-68
2022/10/07 03:12:49;;;;;;;27.30;16.98;;;12.60;99.90;;;;;;5010495;28;20594;-65
2022/10/07 03:15:15;;;;;;;28.35;16.92;;;12.70;99.90;;;;;;5041854;28;20033;-71
2022/10/07 03:17:41;;;;;;;27.13;16.80;;;12.70;99.90;;;;;;5008910;28;20048;-66
2022/10/07 03:20:08;;;;;;;25.02;16.90;;;12.70;99.90;;;;;;5006336;28;20480;-65
2022/10/07 03:22:34;;;;;;;22.20;16.40;;;12.70;99.90;;;;;;5012108;28;20045;-64
2022/10/07 03:25:00;;;;;;;22.50;16.25;;;12.70;99.90;;;;;;5013222;28;20041;-65
2022/10/07 03:27:27;;;;;;;21.02;15.95;;;12.70;99.90;;;;;;5011609;28;20112;-71
2022/10/07 03:29:54;;;;;;;25.80;15.95;;;12.70;99.90;;;;;;5006142;28;20025;-70
2022/10/07 03:32:21;;;;;;;23.55;15.30;;;12.70;99.90;;;;;;4996485;28;20432;-65
2022/10/07 03:34:47;;;;;;;25.48;15.43;;;12.70;99.90;;;;;;5012011;28;20088;-64
2022/10/07 03:37:14;;;;;;;23.20;15.85;;;12.70;99.90;;;;;;5007805;28;20019;-64
2022/10/07 03:39:40;;;;;;;22.10;14.70;;;12.70;99.90;;;;;;4999834;28;20021;-65
2022/10/07 03:42:07;;;;;;;29.67;15.35;;;12.70;99.90;;;;;;4996506;28;20030;-70
2022/10/07 03:44:34;;;;;;;21.70;15.68;;;12.70;99.90;;;;;;5005612;28;20385;-71
2022/10/07 03:47:00;;;;;;;21.98;15.13;;;12.70;99.90;;;;;;5002769;28;20392;-66
2022/10/07 03:49:26;;;;;;;21.90;14.98;;;12.60;99.90;;;;;;5012292;28;20057;-70
2022/10/07 03:51:52;;;;;;;22.48;15.82;;;12.60;99.90;;;;;;5003236;28;20469;-70
2022/10/07 03:54:18;;;;;;;22.20;14.82;;;12.60;99.90;;;;;;5000862;28;20026;-71
2022/10/07 03:56:44;;;;;;;36.70;17.95;;;12.60;99.90;;;;;;4999987;28;20511;-64
2022/10/07 03:59:10;;;;;;;23.05;16.10;;;12.60;99.90;;;;;;5006905;28;20035;-68
2022/10/07 04:01:36;;;;;;;23.10;16.25;;;12.60;99.90;;;;;;5007803;28;20068;-71
2022/10/07 04:04:02;;;;;;;22.33;17.10;;;12.70;99.90;;;;;;4999897;28;20038;-70
2022/10/07 04:06:33;;;;;;;22.42;15.02;;;12.70;99.90;;;;;;5004141;28;20061;-72
2022/10/07 04:09:04;;;;;;;20.08;14.85;;;12.70;99.90;;;;;;5026130;28;20036;-71
2022/10/07 04:11:30;;;;;;;27.95;17.92;;;12.70;99.90;;;;;;5013331;28;20029;-69
2022/10/07 04:13:59;;;;;;;27.88;18.30;;;12.70;99.90;;;;;;5004144;28;20029;-68
2022/10/07 04:16:26;;;;;;;22.58;16.15;;;12.70;99.90;;;;;;5011401;28;20026;-65
2022/10/07 04:18:55;;;;;;;25.52;17.92;;;12.70;99.90;;;;;;5008837;28;20159;-70
2022/10/07 04:21:21;;;;;;;25.25;18.40;;;12.70;99.90;;;;;;5028257;28;20030;-68
2022/10/07 04:23:49;;;;;;;27.10;18.65;;;12.70;99.90;;;;;;5011755;28;20487;-68
2022/10/07 04:26:16;;;;;;;27.23;19.08;;;12.60;99.90;;;;;;5003297;28;20033;-65
2022/10/07 04:28:45;;;;;;;29.10;17.65;;;12.60;99.90;;;;;;5006683;28;20113;-71
2022/10/07 04:31:16;;;;;;;23.45;17.67;;;12.60;99.90;;;;;;4998650;28;20023;-72
2022/10/07 04:33:45;;;;;;;25.17;17.05;;;12.50;99.90;;;;;;5007747;28;20060;-70
2022/10/07 04:36:14;;;;;;;23.48;16.90;;;12.50;99.90;;;;;;5026477;28;20084;-71
2022/10/07 04:38:49;;;;;;;24.63;18.05;;;12.50;99.90;;;;;;5011534;28;20476;-72
2022/10/07 04:41:17;;;;;;;26.55;18.63;;;12.60;99.90;;;;;;4972192;28;20023;-71
2022/10/07 04:43:43;;;;;;;30.17;18.67;;;12.60;99.90;;;;;;5007798;28;20044;-71
2022/10/07 04:46:15;;;;;;;27.25;18.52;;;12.50;99.90;;;;;;4994373;28;20030;-71
2022/10/07 04:48:46;;;;;;;26.23;17.90;;;12.50;99.90;;;;;;5019068;28;20495;-70
2022/10/07 04:51:15;;;;;;;24.42;18.13;;;12.50;99.90;;;;;;5000173;28;20069;-70
2022/10/07 04:53:51;;;;;;;23.83;17.60;;;12.50;99.90;;;;;;4997432;28;20033;-71
2022/10/07 04:56:19;;;;;;;28.17;18.60;;;12.50;99.90;;;;;;5009960;28;20025;-63
2022/10/07 04:58:47;;;;;;;26.42;17.92;;;12.40;99.90;;;;;;5008690;28;20038;-72
2022/10/07 05:01:13;;;;;;;26.27;19.13;;;12.50;99.90;;;;;;5003242;28;20032;-72
2022/10/07 05:03:43;;;;;;;26.50;17.88;;;12.50;99.90;;;;;;5011281;28;20479;-68
2022/10/07 05:06:10;;;;;;;28.00;19.85;;;12.60;99.90;;;;;;5028436;28;20076;-65
2022/10/07 05:08:41;;;;;;;25.80;17.92;;;12.70;99.90;;;;;;5011215;28;20060;-71
2022/10/07 05:11:08;;;;;;;24.50;17.10;;;12.90;99.90;;;;;;5005513;28;20073;-70
2022/10/07 05:13:41;;;;;;;23.55;17.00;;;13.00;99.90;;;;;;5011061;28;20030;-66
2022/10/07 05:16:10;;;;;;;22.92;17.70;;;13.10;99.90;;;;;;5026512;28;20524;-71
2022/10/07 05:18:38;;;;;;;25.30;16.85;;;13.00;99.90;;;;;;4994338;28;20217;-71
2022/10/07 05:21:07;;;;;;;27.27;16.77;;;13.10;99.90;;;;;;5005407;28;20484;-66
2022/10/07 05:23:37;;;;;;;27.27;17.10;;;13.20;99.90;;;;;;5037469;28;20034;-71
2022/10/07 05:26:09;;;;;;;25.45;16.95;;;13.10;99.90;;;;;;5010740;28;20026;-71
2022/10/07 05:28:38;;;;;;;27.67;17.52;;;13.10;99.90;;;;;;5011170;28;20038;-71
2022/10/07 05:31:08;;;;;;;22.65;17.02;;;13.10;99.90;;;;;;4994383;28;20030;-65
2022/10/07 05:33:35;;;;;;;23.02;16.77;;;13.10;99.90;;;;;;5035994;28;20396;-65
2022/10/07 05:36:03;;;;;;;24.00;18.23;;;13.10;99.90;;;;;;5004554;28;20616;-68
2022/10/07 05:38:29;;;;;;;25.17;17.30;;;13.20;99.90;;;;;;5029271;28;20033;-64
2022/10/07 05:41:00;;;;;;;30.10;19.63;;;13.30;99.90;;;;;;5010677;28;20056;-70
2022/10/07 05:43:28;;;;;;;;;;;13.40;99.90;;;;;;5010750;28;20045;-65
2022/10/07 05:46:00;;;;;;;22.95;16.80;;;13.40;99.90;;;;;;5020419;28;19910;-68
2022/10/07 05:48:28;;;;;;;23.02;16.48;;;13.40;99.90;;;;;;5010592;28;20512;-70
2022/10/07 05:50:56;;;;;;;22.58;16.40;;;13.50;99.90;;;;;;5003118;28;20026;-68
2022/10/07 05:53:24;;;;;;;21.30;15.80;;;13.50;99.90;;;;;;5033076;28;20026;-64
2022/10/07 05:55:50;;;;;;;23.10;16.90;;;13.60;99.90;;;;;;5012173;28;20026;-64
2022/10/07 05:58:18;;;;;;;25.48;17.60;;;13.60;99.90;;;;;;5006125;28;20049;-64
2022/10/07 06:00:58;;;;;;;27.45;16.83;;;13.70;99.90;;;;;;5037619;28;20022;-68
2022/10/07 06:03:26;;;;;;;24.73;19.25;;;13.70;99.90;;;;;;5000279;28;20419;-71
2022/10/07 06:05:54;;;;;;;24.40;18.55;;;13.70;99.90;;;;;;4994849;28;20034;-64
2022/10/07 06:08:23;;;;;;;25.50;18.88;;;13.80;99.90;;;;;;5010816;28;20053;-64
2022/10/07 06:13:37;;;;;;;25.35;19.00;;;14.00;99.90;;;;;;5010262;28;20030;-67
2022/10/07 06:16:05;;;;;;;24.13;18.33;;;14.00;99.90;;;;;;4986885;28;20534;-68
2022/10/07 06:18:32;;;;;;;23.67;19.10;;;14.00;99.90;;;;;;5009956;28;20054;-64
2022/10/07 06:20:59;;;;;;;27.15;17.73;;;14.10;99.90;;;;;;5010484;28;20034;-70
2022/10/07 06:23:29;;;;;;;27.45;18.55;;;14.10;99.90;;;;;;5010134;28;20038;-64
2022/10/07 06:25:57;;;;;;;25.30;16.92;;;14.20;99.90;;;;;;4991215;28;20028;-71
2022/10/07 06:28:37;;;;;;;27.25;19.88;;;14.30;99.90;;;;;;5010110;28;20030;-71
2022/10/07 06:31:05;;;;;;;24.77;20.25;;;14.30;99.90;;;;;;5010268;28;20030;-71
2022/10/07 06:33:33;;;;;;;26.52;19.58;;;14.40;99.90;;;;;;4992007;28;20388;-72
2022/10/07 06:36:07;;;;;;;29.63;20.00;;;14.50;99.90;;;;;;5017955;28;20026;-71
2022/10/07 06:38:33;;;;;;;25.55;20.25;;;14.60;99.90;;;;;;5041414;28;20384;-71
2022/10/07 06:41:01;;;;;;;24.67;17.70;;;14.60;99.90;;;;;;5010617;28;20018;-70
2022/10/07 06:43:32;;;;;;;26.85;19.35;;;14.70;99.90;;;;;;5039852;28;20124;-71
2022/10/07 06:46:06;;;;;;;29.48;21.05;;;14.60;99.90;;;;;;5004285;28;20437;-70
2022/10/07 06:48:33;;;;;;;30.50;19.67;;;14.60;99.90;;;;;;5010218;28;20044;-72
2022/10/07 06:51:04;;;;;;;25.63;18.40;;;14.60;99.90;;;;;;5024815;28;20472;-71
2022/10/07 06:53:32;;;;;;;27.65;18.42;;;14.60;99.90;;;;;;5026743;28;20033;-70
2022/10/07 06:56:04;;;;;;;26.58;17.98;;;14.80;99.90;;;;;;5003209;28;20071;-67
2022/10/07 06:58:32;;;;;;;24.80;18.23;;;14.80;99.90;;;;;;5010280;28;20049;-68
2022/10/07 07:01:00;;;;;;;24.42;17.90;;;14.80;99.90;;;;;;5003083;28;20037;-71
2022/10/07 07:03:26;;;;;;;34.38;17.40;;;14.70;99.90;;;;;;5036174;28;20412;-72
2022/10/07 07:05:54;;;;;;;24.10;14.82;;;14.70;99.90;;;;;;5010751;28;20339;-69
2022/10/07 07:08:26;;;;;;;25.40;16.85;;;14.80;99.90;;;;;;5012047;28;20045;-71
2022/10/07 07:10:52;;;;;;;26.92;17.38;;;14.90;99.90;;;;;;5044118;28;20025;-71
2022/10/07 07:13:19;;;;;;;23.65;15.98;;;15.10;99.90;;;;;;5012059;28;20038;-69
2022/10/07 07:15:57;;;;;;;21.50;16.35;;;15.20;99.90;;;;;;5042499;28;20496;-72
2022/10/07 07:18:24;;;;;;;24.92;17.55;;;15.50;99.90;;;;;;5035390;28;20046;-64
2022/10/07 07:20:50;;;;;;;22.85;15.25;;;15.60;99.90;;;;;;5013533;28;20034;-64
2022/10/07 07:23:16;;;;;;;22.35;15.30;;;15.70;99.90;;;;;;4996848;28;20033;-70
2022/10/07 07:25:44;;;;;;;26.05;15.88;;;15.90;99.90;;;;;;5036969;28;20536;-71
2022/10/07 07:28:15;;;;;;;23.52;17.30;;;16.00;99.90;;;;;;5038332;28;20029;-71
2022/10/07 07:30:41;;;;;;;23.98;16.10;;;16.10;99.90;;;;;;5013137;28;20033;-70
2022/10/07 07:33:09;;;;;;;24.05;15.13;;;16.30;99.90;;;;;;5012636;28;20496;-68
2022/10/07 07:35:40;;;;;;;19.83;14.80;;;16.40;99.90;;;;;;4998232;28;20037;-70
2022/10/07 07:38:08;;;;;;;22.05;14.93;;;16.50;99.90;;;;;;5006582;28;20030;-72
2022/10/07 07:40:38;;;;;;;26.15;15.68;;;16.60;99.90;;;;;;5041536;28;20041;-71
2022/10/07 07:43:05;;;;;;;24.42;16.45;;;16.80;99.90;;;;;;5027373;28;20057;-70
2022/10/07 07:45:31;;;;;;;24.60;17.73;;;16.90;99.90;;;;;;5011958;28;20077;-69
2022/10/07 07:47:59;;;;;;;21.55;16.13;;;17.20;99.90;;;;;;5004957;28;20127;-67
2022/10/07 07:50:26;;;;;;;21.75;14.35;;;17.10;99.90;;;;;;5038967;28;20084;-72
2022/10/07 07:52:54;;;;;;;23.45;15.25;;;17.20;99.90;;;;;;5011574;28;20143;-71
2022/10/07 07:55:22;;;;;;;19.13;14.52;;;17.40;99.90;;;;;;5011825;28;20036;-68
2022/10/07 07:57:48;;;;;;;21.70;13.73;;;17.60;99.90;;;;;;5011186;28;20030;-66
2022/10/07 08:00:15;;;;;;;19.58;13.65;;;17.60;99.90;;;;;;4996716;28;20113;-69
2022/10/07 08:02:46;;;;;;;21.77;14.30;;;17.80;99.90;;;;;;5008971;28;20030;-70
2022/10/07 08:05:16;;;;;;;20.15;14.60;;;17.80;99.90;;;;;;5006998;28;20477;-65
2022/10/07 08:07:41;;;;;;;18.83;14.25;;;17.80;99.90;;;;;;5013171;28;20067;-66
2022/10/07 08:10:09;;;;;;;23.15;14.48;;;17.80;99.90;;;;;;5006313;28;20041;-65
2022/10/07 08:12:35;;;;;;;23.25;16.33;;;17.90;99.90;;;;;;5011741;28;20045;-71
2022/10/07 08:15:01;;;;;;;21.67;16.15;;;18.00;99.90;;;;;;5023292;28;20480;-71
2022/10/07 08:17:27;;;;;;;19.27;14.45;;;17.90;99.90;;;;;;5012006;28;20026;-70
2022/10/07 08:19:54;;;;;;;20.80;14.70;;;17.90;99.90;;;;;;5014669;28;20033;-72
2022/10/07 08:22:20;;;;;;;20.23;14.85;;;17.80;99.90;;;;;;5014579;28;20087;-68
2022/10/07 08:24:49;;;;;;;24.35;14.15;;;17.80;99.90;;;;;;5044054;28;20077;-72
2022/10/07 08:27:17;;;;;;;21.35;15.55;;;17.80;99.90;;;;;;5031383;28;20408;-72
2022/10/07 08:29:44;;;;;;;21.02;15.95;;;17.70;99.90;;;;;;5014492;28;20026;-64
2022/10/07 08:32:10;;;;;;;27.20;16.20;;;17.70;99.90;;;;;;5031480;28;20199;-64
2022/10/07 08:34:36;;;;;;;19.55;15.55;;;17.80;99.90;;;;;;5033153;28;20105;-70
2022/10/07 08:37:02;;;;;;;27.33;16.30;;;17.90;99.90;;;;;;5033408;28;20385;-67
2022/10/07 08:39:28;;;;;;;23.63;16.33;;;18.00;99.90;;;;;;5033056;28;20025;-66
2022/10/07 08:42:34;;;;;;;27.05;16.63;;;18.20;99.90;;;;;;5032753;28;20087;-67
2022/10/07 08:45:00;;;;;;;24.10;16.40;;;18.30;99.90;;;;;;4971499;28;20061;-64
2022/10/07 08:47:40;;;;;;;24.45;15.68;;;18.40;99.90;;;;;;4971587;28;20084;-64
2022/10/07 08:50:08;;;;;;;19.88;15.70;;;18.30;99.90;;;;;;4971064;28;20449;-72
2022/10/07 08:52:40;;;;;;;21.33;15.32;;;18.50;99.90;;;;;;4970540;28;20034;-71
2022/10/07 08:55:25;;;;;;;23.50;15.50;;;18.60;99.90;;;;;;4971241;28;20047;-72
2022/10/07 08:58:03;;;;;;;21.15;14.82;;;18.80;99.90;;;;;;4970717;28;20609;-66
2022/10/07 09:00:45;;;;;;;18.45;13.38;;;18.80;99.90;;;;;;4970327;28;20604;-65
2022/10/07 09:03:37;;;;;;;19.40;12.75;;;19.00;99.90;;;;;;4970565;28;20062;-70
2022/10/07 09:06:10;;;;;;;22.52;14.25;;;19.10;99.90;;;;;;4970677;28;20035;-68
2022/10/07 09:08:42;;;;;;;17.02;12.48;;;19.00;99.90;;;;;;4970019;28;20042;-70
2022/10/07 09:11:15;;;;;;;20.10;12.77;;;19.20;99.90;;;;;;4970314;28;20114;-67
2022/10/07 09:14:07;;;;;;;18.08;13.38;;;19.40;99.90;;;;;;4970637;28;20038;-71
2022/10/07 09:16:42;;;;;;;18.33;13.38;;;19.30;99.90;;;;;;4893876;29;20036;-69
2022/10/07 09:19:18;;;;;;;20.17;13.57;;;19.50;99.90;;;;;;4893339;29;20053;-71
2022/10/07 09:21:49;;;;;;;15.90;12.38;;;19.60;99.90;;;;;;4950392;29;20050;-68
2022/10/07 09:24:24;;;;;;;19.67;13.45;;;19.50;99.90;;;;;;4950315;29;20070;-69
2022/10/07 09:26:56;;;;;;;20.63;13.35;;;19.50;99.90;;;;;;4950687;29;20587;-71
2022/10/07 09:29:23;;;;;;;;;;;19.70;99.90;;;;;;4951102;28;20051;-65
2022/10/07 09:31:49;;;;;;;25.80;13.18;;;19.40;99.90;;;;;;4951029;29;20011;-72
2022/10/07 09:34:26;;;;;;;15.63;11.48;;;19.50;99.90;;;;;;4950850;28;20062;-64
2022/10/07 09:37:23;;;;;;;19.00;13.43;;;19.60;99.90;;;;;;4950313;29;20062;-65
2022/10/07 09:39:51;;;;;;;20.35;13.80;;;19.70;99.90;;;;;;4912297;29;20079;-72
2022/10/07 09:42:44;;;;;;;20.35;11.95;;;19.90;99.90;;;;;;4912215;29;20044;-69
2022/10/07 09:45:30;;;;;;;19.08;12.55;;;19.40;99.90;;;;;;4912755;29;20103;-65
2022/10/07 09:48:02;;;;;;;19.83;12.68;;;19.50;99.90;;;;;;4910505;29;20133;-68
2022/10/07 09:50:36;;;;;;;18.85;12.25;;;19.60;99.90;;;;;;4912292;29;20040;-64
2022/10/07 09:53:03;;;;;;;21.75;13.57;;;19.80;99.90;;;;;;4926137;28;20046;-70
2022/10/07 09:55:40;;;;;;;21.80;16.65;;;19.90;99.90;;;;;;4969869;28;20355;-69
2022/10/07 09:58:16;;;;;;;20.48;16.00;;;20.00;99.90;;;;;;4969426;28;20430;-69
2022/10/07 10:00:44;;;;;;;20.95;15.98;;;19.40;99.90;;;;;;4969438;28;20031;-65
2022/10/07 10:03:11;;;;;;;30.25;19.00;;;19.50;99.90;;;;;;4969171;28;20185;-68
2022/10/07 10:05:39;;;;;;;26.05;18.38;;;19.40;99.90;;;;;;4969830;28;20054;-69
2022/10/07 10:08:17;;;;;;;23.35;18.27;;;19.00;99.90;;;;;;4969744;28;20674;-71
2022/10/07 10:10:57;;;;;;;28.42;19.40;;;19.20;99.90;;;;;;4970238;28;20039;-65
2022/10/07 10:13:36;;;;;;;30.83;19.55;;;18.90;99.90;;;;;;4969743;28;20155;-64
2022/10/07 10:16:27;;;;;;;26.77;18.60;;;18.60;99.90;;;;;;4995732;28;20045;-64
2022/10/07 10:19:01;;;;;;;26.67;16.75;;;18.60;99.90;;;;;;5020534;28;20110;-64
2022/10/07 10:21:28;;;;;;;25.73;14.95;;;18.80;99.90;;;;;;5031007;28;20380;-71
2022/10/07 10:24:05;;;;;;;20.73;14.43;;;19.00;99.90;;;;;;5030734;28;20388;-69
2022/10/07 10:26:49;;;;;;;16.88;10.85;;;19.10;99.90;;;;;;5013264;28;20037;-64
2022/10/07 10:29:27;;;;;;;20.45;11.18;;;19.00;99.90;;;;;;5030448;28;20041;-64
2022/10/07 10:32:02;;;;;;;22.75;12.30;;;18.90;99.90;;;;;;5017948;28;20043;-71
2022/10/07 10:34:46;;;;;;;19.00;12.23;;;18.70;99.90;;;;;;5030894;28;20475;-71
2022/10/07 10:37:28;;;;;;;21.00;8.05;;;18.90;99.90;;;;;;5030950;28;20033;-67
2022/10/07 10:40:32;;;;;;;19.15;11.73;;;19.00;99.90;;;;;;5031166;28;20114;-71
2022/10/07 10:43:35;;;;;;;13.98;7.53;;;19.20;99.90;;;;;;5034102;28;20055;-71
2022/10/07 10:46:25;;;;;;;12.50;7.57;;;19.20;99.90;;;;;;5034374;28;20083;-71
2022/10/07 10:49:24;;;;;;;14.55;8.75;;;19.30;99.90;;;;;;5033879;28;20426;-64
2022/10/07 10:52:03;;;;;;;10.98;6.25;;;19.40;99.90;;;;;;5034457;28;20025;-71
2022/10/07 10:55:15;;;;;;;17.75;8.85;;;19.40;99.90;;;;;;5016509;28;20444;-65
2022/10/07 10:57:47;;;;;;;15.65;8.95;;;19.40;99.90;;;;;;5034245;28;20030;-65
2022/10/07 11:00:20;;;;;;;13.98;8.52;;;19.40;99.90;;;;;;5031732;28;20034;-71
2022/10/07 11:03:11;;;;;;;11.23;6.65;;;19.30;99.90;;;;;;5023683;28;20135;-71
2022/10/07 11:05:39;;;;;;;15.27;7.07;;;19.40;99.90;;;;;;5034014;28;20030;-72
2022/10/07 11:08:30;;;;;;;15.27;7.55;;;19.40;99.90;;;;;;5033876;28;20107;-67
2022/10/07 11:11:14;;;;;;;15.65;7.65;;;19.40;99.90;;;;;;5033938;28;20052;-71
2022/10/07 11:13:45;;;;;;;12.18;7.70;;;19.30;99.90;;;;;;5033733;28;20480;-71
2022/10/07 11:16:38;;;;;;;12.60;7.13;;;19.50;99.90;;;;;;5033642;28;20400;-64
2022/10/07 11:19:10;;;;;;;;;;;19.40;99.90;;;;;;5033722;28;20484;-67
2022/10/07 11:21:46;;;;;;;17.50;7.72;;;19.50;99.90;;;;;;5033750;28;20323;-69
2022/10/07 11:24:25;;;;;;;14.02;7.30;;;19.60;99.90;;;;;;5033625;28;20099;-71
2022/10/07 11:27:10;;;;;;;11.45;7.35;;;19.50;99.90;;;;;;5033662;28;20464;-65
2022/10/07 11:29:47;;;;;;;13.45;7.32;;;19.50;99.90;;;;;;5033294;28;20029;-65
2022/10/07 11:32:22;;;;;;;16.33;7.18;;;19.30;99.90;;;;;;5033315;28;20500;-65
2022/10/07 11:35:19;;;;;;;12.18;6.88;;;19.50;99.90;;;;;;5033291;28;20033;-71
2022/10/07 11:37:51;;;;;;;16.27;5.78;;;19.50;99.90;;;;;;5033147;28;20017;-69
2022/10/07 11:40:18;;;;;;;11.80;5.82;;;19.50;99.90;;;;;;5033666;28;20032;-64
2022/10/07 11:42:50;;;;;;;14.75;7.88;;;19.60;99.90;;;;;;5033008;28;20028;-65
2022/10/07 11:45:27;;;;;;;11.05;6.95;;;19.60;99.90;;;;;;5033379;28;20014;-65
2022/10/07 11:47:59;;;;;;;12.38;6.95;;;19.60;99.90;;;;;;5032841;28;20029;-64
2022/10/07 11:50:32;;;;;;;10.75;6.80;;;19.60;99.90;;;;;;5032618;28;20029;-71
2022/10/07 11:53:07;;;;;;;13.00;6.53;;;19.40;99.90;;;;;;5033136;28;20543;-64
2022/10/07 11:55:47;;;;;;;10.75;5.13;;;19.50;99.90;;;;;;5032895;28;20030;-67
2022/10/07 11:58:47;;;;;;;9.75;5.07;;;19.40;99.90;;;;;;5020264;28;20022;-64
2022/10/07 12:01:24;;;;;;;8.93;5.00;;;19.20;99.90;;;;;;4933134;29;20032;-67
2022/10/07 12:03:53;;;;;;;10.63;4.97;;;19.20;99.90;;;;;;4932960;28;20051;-64
2022/10/07 12:06:19;;;;;;;8.90;4.05;;;19.40;99.90;;;;;;4933160;29;20020;-71
2022/10/07 12:08:45;;;;;;;6.18;3.63;;;19.40;99.90;;;;;;4933104;29;20031;-70
2022/10/07 12:11:11;;;;;;;6.85;3.92;;;19.40;99.90;;;;;;4932540;29;20442;-67
2022/10/07 12:13:49;;;;;;;6.43;3.25;;;19.40;99.90;;;;;;4932820;29;20122;-72
2022/10/07 12:16:28;;;;;;;9.75;3.97;;;19.50;99.90;;;;;;4933346;29;20391;-64
2022/10/07 12:19:06;;;;;;;7.95;4.63;;;19.50;99.90;;;;;;4932870;29;20075;-72
2022/10/07 12:21:59;;;;;;;9.40;5.57;;;19.30;99.90;;;;;;4933023;29;20035;-64
2022/10/07 12:24:35;;;;;;;12.00;5.43;;;19.50;99.90;;;;;;4933081;29;20051;-65
2022/10/07 12:27:20;;;;;;;8.93;5.30;;;19.50;99.90;;;;;;4932793;29;20119;-64
2022/10/07 12:29:49;;;;;;;9.23;4.07;;;19.60;99.90;;;;;;4932608;29;20122;-67
2022/10/07 12:32:49;;;;;;;12.10;4.90;;;19.50;99.90;;;;;;4933077;29;20497;-71
2022/10/07 12:35:35;;;;;;;8.63;4.72;;;19.50;99.90;;;;;;4932825;29;20036;-64
2022/10/07 12:38:23;;;;;;;8.65;4.85;;;19.50;99.90;;;;;;5032498;28;20234;-68
2022/10/07 12:41:16;;;;;;;8.65;4.43;;;19.40;99.90;;;;;;5031686;28;20101;-71
2022/10/07 12:43:43;;;;;;;17.08;8.15;;;19.30;99.90;;;;;;5031585;28;20048;-70
2022/10/07 12:46:17;;;;;;;13.23;5.90;;;19.30;99.90;;;;;;5032530;28;20052;-65
2022/10/07 12:49:03;;;;;;;15.77;8.05;;;19.40;99.90;;;;;;5032101;28;20034;-64
2022/10/07 12:51:37;;;;;;;15.23;7.30;;;19.50;99.90;;;;;;5023590;28;20427;-71
2022/10/07 12:54:14;;;;;;;8.50;5.03;;;19.50;99.90;;;;;;5031996;28;20476;-68
2022/10/07 12:56:43;;;;;;;9.45;5.47;;;19.60;99.90;;;;;;5031810;28;20519;-71
2022/10/07 13:02:35;;;;;;;11.32;5.43;;;19.50;99.90;;;;;;5031534;28;20036;-71
2022/10/07 13:05:16;;;;;;;9.40;5.28;;;19.40;99.90;;;;;;5019024;28;20077;-71